sensor_id;sensor_type;location;lat;lon;timestamp;pressure;altitude;pressure_sealevel;temperature;humidity
20156;BME280;10238;49.556;10.956;2023-03-22T00:02:32;98122.78;;;8.90;100.00
20156;BME280;10238;49.556;10.956;2023-03-22T00:05:20;98131.00;;;8.87;100.00
20156;BME280;10238;49.556;10.956;2023-03-22T00:08:08;98121.69;;;8.83;100.00
20156;BME280;10238;49.556;10.956;2023-03-22T00:10:56;98129.09;;;8.79;100.00
20156;BME280;10238;49.556;10.956;2023-03-22T00:13:49;98131.22;;;8.76;100.00
20156;BME280;10238;49.556;10.956;2023-03-22T00:16:38;98128.84;;;8.73;100.00
20156;BME280;10238;49.556;10.956;2023-03-22T00:19:26;98127.50;;;8.69;100.00
20156;BME280;10238;49.556;10.956;2023-03-22T00:22:14;98126.28;;;8.63;100.00
20156;BME280;10238;49.556;10.956;2023-03-22T00:25:03;98126.44;;;8.62;100.00
20156;BME280;10238;49.556;10.956;2023-03-22T00:27:51;98114.47;;;8.58;100.00
20156;BME280;10238;49.556;10.956;2023-03-22T00:30:41;98113.75;;;8.56;100.00
20156;BME280;10238;49.556;10.956;2023-03-22T00:33:30;98109.47;;;8.55;100.00
20156;BME280;10238;49.556;10.956;2023-03-22T00:36:18;98106.97;;;8.53;100.00
20156;BME280;10238;49.556;10.956;2023-03-22T00:39:06;98108.06;;;8.51;100.00
20156;BME280;10238;49.556;10.956;2023-03-22T00:41:54;98099.59;;;8.47;100.00
20156;BME280;10238;49.556;10.956;2023-03-22T00:44:42;98099.75;;;8.46;100.00
20156;BME280;10238;49.556;10.956;2023-03-22T00:47:31;98098.38;;;8.42;100.00
20156;BME280;10238;49.556;10.956;2023-03-22T00:50:19;98096.97;;;8.38;100.00
20156;BME280;10238;49.556;10.956;2023-03-22T00:53:08;98093.66;;;8.36;100.00
20156;BME280;10238;49.556;10.956;2023-03-22T00:55:56;98092.28;;;8.32;100.00
20156;BME280;10238;49.556;10.956;2023-03-22T00:58:43;98091.91;;;8.27;100.00
20156;BME280;10238;49.556;10.956;2023-03-22T01:01:31;98091.50;;;8.22;100.00
20156;BME280;10238;49.556;10.956;2023-03-22T01:04:21;98090.09;;;8.18;100.00
20156;BME280;10238;49.556;10.956;2023-03-22T01:07:11;98088.88;;;8.12;100.00
20156;BME280;10238;49.556;10.956;2023-03-22T01:10:04;98092.94;;;8.07;100.00
20156;BME280;10238;49.556;10.956;2023-03-22T01:13:02;98092.66;;;8.00;100.00
20156;BME280;10238;49.556;10.956;2023-03-22T01:15:50;98085.16;;;7.96;100.00
20156;BME280;10238;49.556;10.956;2023-03-22T01:18:38;98082.28;;;7.89;100.00
20156;BME280;10238;49.556;10.956;2023-03-22T01:21:28;98078.53;;;7.82;100.00
20156;BME280;10238;49.556;10.956;2023-03-22T01:24:18;98078.97;;;7.78;100.00
20156;BME280;10238;49.556;10.956;2023-03-22T01:27:06;98082.88;;;7.74;100.00
20156;BME280;10238;49.556;10.956;2023-03-22T01:29:54;98073.56;;;7.70;100.00
20156;BME280;10238;49.556;10.956;2023-03-22T01:32:42;98075.78;;;7.65;100.00
20156;BME280;10238;49.556;10.956;2023-03-22T01:35:30;98064.13;;;7.58;100.00
20156;BME280;10238;49.556;10.956;2023-03-22T01:38:20;98058.44;;;7.53;100.00
20156;BME280;10238;49.556;10.956;2023-03-22T01:41:08;98064.00;;;7.50;100.00
20156;BME280;10238;49.556;10.956;2023-03-22T01:44:14;98068.88;;;7.45;100.00
20156;BME280;10238;49.556;10.956;2023-03-22T01:47:02;98069.44;;;7.39;100.00
20156;BME280;10238;49.556;10.956;2023-03-22T01:49:50;98069.19;;;7.32;100.00
20156;BME280;10238;49.556;10.956;2023-03-22T01:52:38;98061.69;;;7.28;100.00
20156;BME280;10238;49.556;10.956;2023-03-22T01:55:28;98055.84;;;7.24;100.00
20156;BME280;10238;49.556;10.956;2023-03-22T01:58:16;98060.59;;;7.21;100.00
20156;BME280;10238;49.556;10.956;2023-03-22T02:01:06;98054.75;;;7.17;100.00
20156;BME280;10238;49.556;10.956;2023-03-22T02:03:58;98056.81;;;7.14;100.00
20156;BME280;10238;49.556;10.956;2023-03-22T02:06:51;98060.72;;;7.10;100.00
20156;BME280;10238;49.556;10.956;2023-03-22T02:09:41;98055.56;;;7.08;100.00
20156;BME280;10238;49.556;10.956;2023-03-22T02:12:39;98064.63;;;7.06;100.00
20156;BME280;10238;49.556;10.956;2023-03-22T02:15:34;98056.13;;;7.02;100.00
20156;BME280;10238;49.556;10.956;2023-03-22T02:22:02;98049.19;;;6.92;100.00
20156;BME280;10238;49.556;10.956;2023-03-22T02:25:23;98055.44;;;6.91;100.00
20156;BME280;10238;49.556;10.956;2023-03-22T02:28:28;98061.72;;;6.90;100.00
20156;BME280;10238;49.556;10.956;2023-03-22T02:31:32;98052.25;;;6.78;100.00
20156;BME280;10238;49.556;10.956;2023-03-22T02:41:18;98036.81;;;6.73;100.00
20156;BME280;10238;49.556;10.956;2023-03-22T02:44:20;98040.31;;;6.74;100.00
20156;BME280;10238;49.556;10.956;2023-03-22T02:47:19;98040.44;;;6.72;100.00
20156;BME280;10238;49.556;10.956;2023-03-22T02:50:12;98030.00;;;6.71;100.00
20156;BME280;10238;49.556;10.956;2023-03-22T02:53:04;98035.28;;;6.71;100.00
20156;BME280;10238;49.556;10.956;2023-03-22T02:55:58;98027.66;;;6.68;100.00
20156;BME280;10238;49.556;10.956;2023-03-22T02:58:51;98026.78;;;6.67;100.00
20156;BME280;10238;49.556;10.956;2023-03-22T03:01:43;98025.00;;;6.68;100.00
20156;BME280;10238;49.556;10.956;2023-03-22T03:04:36;98023.63;;;6.63;100.00
20156;BME280;10238;49.556;10.956;2023-03-22T03:07:26;98029.19;;;6.60;100.00
20156;BME280;10238;49.556;10.956;2023-03-22T03:10:17;98024.16;;;6.57;100.00
20156;BME280;10238;49.556;10.956;2023-03-22T03:13:07;98029.00;;;6.52;100.00
20156;BME280;10238;49.556;10.956;2023-03-22T03:15:59;98022.34;;;6.48;100.00
20156;BME280;10238;49.556;10.956;2023-03-22T03:18:53;98019.97;;;6.45;100.00
20156;BME280;10238;49.556;10.956;2023-03-22T03:21:47;98021.22;;;6.41;100.00
20156;BME280;10238;49.556;10.956;2023-03-22T03:24:43;98025.94;;;6.38;100.00
20156;BME280;10238;49.556;10.956;2023-03-22T03:27:37;98026.34;;;6.33;100.00
20156;BME280;10238;49.556;10.956;2023-03-22T03:30:30;98016.47;;;6.26;100.00
20156;BME280;10238;49.556;10.956;2023-03-22T03:33:20;98021.06;;;6.24;100.00
20156;BME280;10238;49.556;10.956;2023-03-22T03:36:11;98018.84;;;6.19;100.00
20156;BME280;10238;49.556;10.956;2023-03-22T03:39:01;98033.16;;;6.17;100.00
20156;BME280;10238;49.556;10.956;2023-03-22T03:41:52;98034.34;;;6.13;100.00
20156;BME280;10238;49.556;10.956;2023-03-22T03:44:42;98037.41;;;6.08;100.00
20156;BME280;10238;49.556;10.956;2023-03-22T03:47:31;98034.34;;;6.03;100.00
20156;BME280;10238;49.556;10.956;2023-03-22T03:50:23;98036.28;;;6.01;100.00
20156;BME280;10238;49.556;10.956;2023-03-22T03:53:11;98034.88;;;5.97;100.00
20156;BME280;10238;49.556;10.956;2023-03-22T03:56:00;98044.72;;;5.95;100.00
20156;BME280;10238;49.556;10.956;2023-03-22T03:58:47;98038.19;;;5.90;100.00
20156;BME280;10238;49.556;10.956;2023-03-22T04:01:35;98037.59;;;5.86;100.00
20156;BME280;10238;49.556;10.956;2023-03-22T04:04:27;98032.63;;;5.83;100.00
20156;BME280;10238;49.556;10.956;2023-03-22T04:07:16;98034.28;;;5.84;100.00
20156;BME280;10238;49.556;10.956;2023-03-22T04:10:06;98035.09;;;5.85;100.00
20156;BME280;10238;49.556;10.956;2023-03-22T04:12:55;98035.41;;;5.82;100.00
20156;BME280;10238;49.556;10.956;2023-03-22T04:15:43;98038.13;;;5.80;100.00
20156;BME280;10238;49.556;10.956;2023-03-22T04:18:31;98049.63;;;5.79;100.00
20156;BME280;10238;49.556;10.956;2023-03-22T04:21:19;98047.81;;;5.80;100.00
20156;BME280;10238;49.556;10.956;2023-03-22T04:24:09;98049.75;;;5.78;100.00
20156;BME280;10238;49.556;10.956;2023-03-22T04:26:57;98050.38;;;5.81;100.00
20156;BME280;10238;49.556;10.956;2023-03-22T04:29:46;98049.75;;;5.78;100.00
20156;BME280;10238;49.556;10.956;2023-03-22T04:32:37;98051.56;;;5.77;100.00
20156;BME280;10238;49.556;10.956;2023-03-22T04:35:25;98045.59;;;5.75;100.00
20156;BME280;10238;49.556;10.956;2023-03-22T04:38:13;98041.69;;;5.70;100.00
20156;BME280;10238;49.556;10.956;2023-03-22T04:41:03;98040.72;;;5.71;100.00
20156;BME280;10238;49.556;10.956;2023-03-22T04:43:51;98042.75;;;5.67;100.00
20156;BME280;10238;49.556;10.956;2023-03-22T04:46:40;98036.81;;;5.65;100.00
20156;BME280;10238;49.556;10.956;2023-03-22T04:49:29;98038.72;;;5.63;100.00
20156;BME280;10238;49.556;10.956;2023-03-22T04:52:18;98040.69;;;5.61;100.00
20156;BME280;10238;49.556;10.956;2023-03-22T04:55:06;98039.97;;;5.59;100.00
20156;BME280;10238;49.556;10.956;2023-03-22T04:57:56;98043.84;;;5.55;100.00
20156;BME280;10238;49.556;10.956;2023-03-22T05:00:43;98040.50;;;5.53;100.00
20156;BME280;10238;49.556;10.956;2023-03-22T05:03:32;98042.41;;;5.51;100.00
20156;BME280;10238;49.556;10.956;2023-03-22T05:06:20;98041.00;;;5.47;100.00
20156;BME280;10238;49.556;10.956;2023-03-22T05:09:08;98038.75;;;5.43;100.00
20156;BME280;10238;49.556;10.956;2023-03-22T05:11:56;98040.84;;;5.39;100.00
20156;BME280;10238;49.556;10.956;2023-03-22T05:14:46;98035.09;;;5.34;100.00
20156;BME280;10238;49.556;10.956;2023-03-22T05:17:34;98031.50;;;5.35;100.00
20156;BME280;10238;49.556;10.956;2023-03-22T05:20:22;98028.44;;;5.30;100.00
20156;BME280;10238;49.556;10.956;2023-03-22T05:23:10;98027.03;;;5.26;100.00
20156;BME280;10238;49.556;10.956;2023-03-22T05:25:58;98028.94;;;5.24;100.00
20156;BME280;10238;49.556;10.956;2023-03-22T05:28:47;98023.09;;;5.21;100.00
20156;BME280;10238;49.556;10.956;2023-03-22T05:31:36;98025.88;;;5.19;100.00
20156;BME280;10238;49.556;10.956;2023-03-22T05:34:26;98028.06;;;5.14;100.00
20156;BME280;10238;49.556;10.956;2023-03-22T05:37:20;98029.16;;;5.12;100.00
20156;BME280;10238;49.556;10.956;2023-03-22T05:40:09;98021.66;;;5.07;100.00
20156;BME280;10238;49.556;10.956;2023-03-22T05:42:57;98016.63;;;5.04;100.00
20156;BME280;10238;49.556;10.956;2023-03-22T05:45:45;98027.16;;;5.04;100.00
20156;BME280;10238;49.556;10.956;2023-03-22T05:48:35;98021.19;;;5.02;100.00
20156;BME280;10238;49.556;10.956;2023-03-22T05:51:24;98016.88;;;5.01;100.00
20156;BME280;10238;49.556;10.956;2023-03-22T05:54:13;98014.13;;;5.03;100.00
20156;BME280;10238;49.556;10.956;2023-03-22T05:57:01;98019.84;;;5.08;100.00
20156;BME280;10238;49.556;10.956;2023-03-22T05:59:48;98018.16;;;5.27;100.00
20156;BME280;10238;49.556;10.956;2023-03-22T06:02:39;98023.78;;;5.43;100.00
20156;BME280;10238;49.556;10.956;2023-03-22T06:05:29;98031.19;;;5.49;100.00
20156;BME280;10238;49.556;10.956;2023-03-22T06:08:17;98041.47;;;5.52;100.00
20156;BME280;10238;49.556;10.956;2023-03-22T06:11:06;98052.53;;;5.76;100.00
20156;BME280;10238;49.556;10.956;2023-03-22T06:13:54;98048.69;;;5.80;100.00
20156;BME280;10238;49.556;10.956;2023-03-22T06:16:42;98046.63;;;5.84;100.00
20156;BME280;10238;49.556;10.956;2023-03-22T06:19:30;98053.47;;;5.96;100.00
20156;BME280;10238;49.556;10.956;2023-03-22T06:22:20;98046.56;;;6.04;100.00
20156;BME280;10238;49.556;10.956;2023-03-22T06:25:09;98053.53;;;6.15;100.00
20156;BME280;10238;49.556;10.956;2023-03-22T06:27:57;98054.00;;;6.39;100.00
20156;BME280;10238;49.556;10.956;2023-03-22T06:30:45;98047.22;;;6.55;100.00
20156;BME280;10238;49.556;10.956;2023-03-22T06:33:33;98053.34;;;6.65;100.00
20156;BME280;10238;49.556;10.956;2023-03-22T06:36:21;98059.75;;;6.63;100.00
20156;BME280;10238;49.556;10.956;2023-03-22T06:39:10;98062.97;;;6.86;100.00
20156;BME280;10238;49.556;10.956;2023-03-22T06:41:58;98068.25;;;6.86;95.16
20156;BME280;10238;49.556;10.956;2023-03-22T06:44:46;98067.28;;;6.87;82.68
20156;BME280;10238;49.556;10.956;2023-03-22T06:47:34;98062.81;;;6.97;73.19
20156;BME280;10238;49.556;10.956;2023-03-22T06:50:22;98069.47;;;7.20;63.47
20156;BME280;10238;49.556;10.956;2023-03-22T06:53:10;98065.44;;;7.35;49.83
20156;BME280;10238;49.556;10.956;2023-03-22T06:55:59;98062.34;;;7.30;45.28
20156;BME280;10238;49.556;10.956;2023-03-22T06:58:47;98061.94;;;7.34;42.33
20156;BME280;10238;49.556;10.956;2023-03-22T07:01:37;98062.03;;;7.52;40.04
20156;BME280;10238;49.556;10.956;2023-03-22T07:04:25;98067.72;;;7.66;40.60
20156;BME280;10238;49.556;10.956;2023-03-22T07:07:13;98066.31;;;7.72;42.51
20156;BME280;10238;49.556;10.956;2023-03-22T07:10:01;98064.34;;;7.83;47.76
20156;BME280;10238;49.556;10.956;2023-03-22T07:12:50;98064.00;;;7.96;52.66
20156;BME280;10238;49.556;10.956;2023-03-22T07:15:38;98073.91;;;8.21;79.04
20156;BME280;10238;49.556;10.956;2023-03-22T07:18:28;98069.34;;;8.23;100.00
20156;BME280;10238;49.556;10.956;2023-03-22T07:21:16;98069.72;;;8.28;100.00
20156;BME280;10238;49.556;10.956;2023-03-22T07:24:04;98068.44;;;8.59;100.00
20156;BME280;10238;49.556;10.956;2023-03-22T07:26:54;98068.16;;;8.79;100.00
20156;BME280;10238;49.556;10.956;2023-03-22T07:29:44;98068.31;;;8.78;100.00
20156;BME280;10238;49.556;10.956;2023-03-22T07:32:31;98069.59;;;8.92;100.00
20156;BME280;10238;49.556;10.956;2023-03-22T07:35:19;98061.41;;;8.85;100.00
20156;BME280;10238;49.556;10.956;2023-03-22T07:38:09;98062.91;;;9.05;100.00
20156;BME280;10238;49.556;10.956;2023-03-22T07:40:58;98058.13;;;9.26;100.00
20156;BME280;10238;49.556;10.956;2023-03-22T07:43:46;98059.88;;;9.18;100.00
20156;BME280;10238;49.556;10.956;2023-03-22T07:46:45;98056.69;;;9.32;100.00
20156;BME280;10238;49.556;10.956;2023-03-22T07:49:34;98059.78;;;9.27;100.00
20156;BME280;10238;49.556;10.956;2023-03-22T07:52:23;98052.03;;;9.51;100.00
20156;BME280;10238;49.556;10.956;2023-03-22T07:55:12;98049.16;;;9.45;100.00
20156;BME280;10238;49.556;10.956;2023-03-22T07:58:05;98049.41;;;9.59;100.00
20156;BME280;10238;49.556;10.956;2023-03-22T08:00:53;98045.22;;;9.74;100.00
20156;BME280;10238;49.556;10.956;2023-03-22T08:03:42;98036.94;;;9.77;100.00
20156;BME280;10238;49.556;10.956;2023-03-22T08:06:30;98029.38;;;9.90;100.00
20156;BME280;10238;49.556;10.956;2023-03-22T08:09:19;98029.22;;;10.25;100.00
20156;BME280;10238;49.556;10.956;2023-03-22T08:12:07;98021.72;;;10.21;100.00
20156;BME280;10238;49.556;10.956;2023-03-22T08:14:55;98024.31;;;10.46;100.00
20156;BME280;10238;49.556;10.956;2023-03-22T08:17:43;98030.69;;;10.61;100.00
20156;BME280;10238;49.556;10.956;2023-03-22T08:20:32;98014.00;;;10.43;100.00
20156;BME280;10238;49.556;10.956;2023-03-22T08:23:21;98017.00;;;10.48;100.00
20156;BME280;10238;49.556;10.956;2023-03-22T08:26:26;98012.91;;;10.78;100.00
20156;BME280;10238;49.556;10.956;2023-03-22T08:29:14;98009.44;;;10.85;100.00
20156;BME280;10238;49.556;10.956;2023-03-22T08:32:02;98012.13;;;11.26;100.00
20156;BME280;10238;49.556;10.956;2023-03-22T08:34:51;98001.13;;;11.05;100.00
20156;BME280;10238;49.556;10.956;2023-03-22T08:37:40;98003.63;;;11.14;100.00
20156;BME280;10238;49.556;10.956;2023-03-22T08:40:28;98007.78;;;11.33;100.00
20156;BME280;10238;49.556;10.956;2023-03-22T08:43:16;97998.13;;;11.40;100.00
20156;BME280;10238;49.556;10.956;2023-03-22T08:46:04;97998.75;;;11.58;100.00
20156;BME280;10238;49.556;10.956;2023-03-22T08:48:56;97998.38;;;11.85;100.00
20156;BME280;10238;49.556;10.956;2023-03-22T08:51:48;97994.69;;;11.86;100.00
20156;BME280;10238;49.556;10.956;2023-03-22T08:54:37;98000.03;;;11.86;100.00
20156;BME280;10238;49.556;10.956;2023-03-22T08:57:26;97994.25;;;12.21;100.00
20156;BME280;10238;49.556;10.956;2023-03-22T09:00:16;97987.06;;;12.52;100.00
20156;BME280;10238;49.556;10.956;2023-03-22T09:03:05;97978.47;;;12.95;100.00
20156;BME280;10238;49.556;10.956;2023-03-22T09:05:53;97970.97;;;13.13;100.00
20156;BME280;10238;49.556;10.956;2023-03-22T09:08:45;97964.94;;;12.74;100.00
20156;BME280;10238;49.556;10.956;2023-03-22T09:11:38;97957.13;;;12.95;100.00
20156;BME280;10238;49.556;10.956;2023-03-22T09:14:28;97964.25;;;13.02;100.00
20156;BME280;10238;49.556;10.956;2023-03-22T09:17:16;97956.22;;;13.40;100.00
20156;BME280;10238;49.556;10.956;2023-03-22T09:20:08;97952.75;;;13.54;100.00
20156;BME280;10238;49.556;10.956;2023-03-22T09:23:01;97957.38;;;13.74;100.00
20156;BME280;10238;49.556;10.956;2023-03-22T09:25:49;97954.41;;;13.98;100.00
20156;BME280;10238;49.556;10.956;2023-03-22T09:28:39;97957.16;;;14.19;100.00
20156;BME280;10238;49.556;10.956;2023-03-22T09:31:27;97945.69;;;14.54;100.00
20156;BME280;10238;49.556;10.956;2023-03-22T09:34:14;97956.00;;;14.78;100.00
20156;BME280;10238;49.556;10.956;2023-03-22T09:37:03;97940.44;;;15.09;100.00
20156;BME280;10238;49.556;10.956;2023-03-22T09:39:51;97937.09;;;15.29;100.00
20156;BME280;10238;49.556;10.956;2023-03-22T09:42:42;97935.50;;;15.62;100.00
20156;BME280;10238;49.556;10.956;2023-03-22T09:45:35;97939.69;;;16.05;100.00
20156;BME280;10238;49.556;10.956;2023-03-22T09:48:29;97934.41;;;16.24;100.00
20156;BME280;10238;49.556;10.956;2023-03-22T09:51:33;97927.28;;;16.51;100.00
20156;BME280;10238;49.556;10.956;2023-03-22T09:54:33;97911.06;;;16.78;100.00
20156;BME280;10238;49.556;10.956;2023-03-22T09:57:28;97914.78;;;17.23;100.00
20156;BME280;10238;49.556;10.956;2023-03-22T10:00:21;97903.63;;;17.59;100.00
20156;BME280;10238;49.556;10.956;2023-03-22T10:03:23;97900.69;;;18.43;100.00
20156;BME280;10238;49.556;10.956;2023-03-22T10:06:19;97889.13;;;18.67;100.00
20156;BME280;10238;49.556;10.956;2023-03-22T10:09:09;97885.75;;;18.78;88.66
20156;BME280;10238;49.556;10.956;2023-03-22T10:12:07;97888.47;;;18.72;87.52
20156;BME280;10238;49.556;10.956;2023-03-22T10:15:07;97880.06;;;19.17;86.18
20156;BME280;10238;49.556;10.956;2023-03-22T10:17:58;97885.06;;;19.63;97.43
20156;BME280;10238;49.556;10.956;2023-03-22T10:20:55;97882.00;;;19.96;96.57
20156;BME280;10238;49.556;10.956;2023-03-22T10:23:48;97875.97;;;20.48;93.35
20156;BME280;10238;49.556;10.956;2023-03-22T10:26:39;97871.22;;;20.14;84.42
20156;BME280;10238;49.556;10.956;2023-03-22T10:29:31;97871.94;;;19.85;77.78
20156;BME280;10238;49.556;10.956;2023-03-22T10:32:21;97867.75;;;20.25;81.70
20156;BME280;10238;49.556;10.956;2023-03-22T10:35:14;97869.66;;;20.54;88.48
20156;BME280;10238;49.556;10.956;2023-03-22T10:38:05;97857.13;;;21.00;84.52
20156;BME280;10238;49.556;10.956;2023-03-22T10:40:57;97837.91;;;20.90;75.31
20156;BME280;10238;49.556;10.956;2023-03-22T10:43:48;97850.56;;;21.43;83.77
20156;BME280;10238;49.556;10.956;2023-03-22T10:46:39;97841.38;;;21.67;76.02
20156;BME280;10238;49.556;10.956;2023-03-22T10:49:31;97841.38;;;21.09;68.74
20156;BME280;10238;49.556;10.956;2023-03-22T10:52:31;97843.13;;;20.62;69.95
20156;BME280;10238;49.556;10.956;2023-03-22T10:55:23;97835.41;;;21.18;81.30
20156;BME280;10238;49.556;10.956;2023-03-22T10:58:13;97837.44;;;20.82;67.88
20156;BME280;10238;49.556;10.956;2023-03-22T11:01:06;97833.75;;;21.29;73.32
20156;BME280;10238;49.556;10.956;2023-03-22T11:03:58;97827.03;;;22.57;83.26
20156;BME280;10238;49.556;10.956;2023-03-22T11:06:49;97824.84;;;23.03;78.75
20156;BME280;10238;49.556;10.956;2023-03-22T11:09:41;97822.00;;;23.26;71.27
20156;BME280;10238;49.556;10.956;2023-03-22T11:12:30;97827.66;;;23.80;75.39
20156;BME280;10238;49.556;10.956;2023-03-22T11:15:29;97830.28;;;23.37;62.88
20156;BME280;10238;49.556;10.956;2023-03-22T11:18:17;97833.16;;;22.97;70.74
20156;BME280;10238;49.556;10.956;2023-03-22T11:21:08;97825.19;;;23.23;75.98
20156;BME280;10238;49.556;10.956;2023-03-22T11:23:59;97819.84;;;22.95;67.04
20156;BME280;10238;49.556;10.956;2023-03-22T11:27:02;97821.97;;;22.93;75.31
20156;BME280;10238;49.556;10.956;2023-03-22T11:29:53;97817.09;;;24.00;73.90
20156;BME280;10238;49.556;10.956;2023-03-22T11:32:43;97814.88;;;24.45;65.42
20156;BME280;10238;49.556;10.956;2023-03-22T11:35:31;97807.34;;;22.94;57.51
20156;BME280;10238;49.556;10.956;2023-03-22T11:38:24;97808.47;;;22.65;59.60
20156;BME280;10238;49.556;10.956;2023-03-22T11:41:22;97799.13;;;24.42;70.58
20156;BME280;10238;49.556;10.956;2023-03-22T11:44:14;97797.38;;;24.84;65.65
20156;BME280;10238;49.556;10.956;2023-03-22T11:47:04;97791.97;;;25.57;64.61
20156;BME280;10238;49.556;10.956;2023-03-22T11:49:55;97804.97;;;23.48;55.60
20156;BME280;10238;49.556;10.956;2023-03-22T11:52:46;97804.56;;;22.89;61.10
20156;BME280;10238;49.556;10.956;2023-03-22T11:55:35;97787.06;;;25.22;66.40
20156;BME280;10238;49.556;10.956;2023-03-22T11:58:34;97790.47;;;25.03;64.31
20156;BME280;10238;49.556;10.956;2023-03-22T12:01:37;97793.22;;;24.76;58.07
20156;BME280;10238;49.556;10.956;2023-03-22T12:04:30;97786.38;;;24.69;62.31
20156;BME280;10238;49.556;10.956;2023-03-22T12:07:22;97783.13;;;24.45;53.26
20156;BME280;10238;49.556;10.956;2023-03-22T12:10:16;97789.72;;;23.85;50.73
20156;BME280;10238;49.556;10.956;2023-03-22T12:13:13;97774.59;;;24.37;58.13
20156;BME280;10238;49.556;10.956;2023-03-22T12:16:05;97768.94;;;24.65;59.95
20156;BME280;10238;49.556;10.956;2023-03-22T12:19:02;97766.06;;;25.13;64.82
20156;BME280;10238;49.556;10.956;2023-03-22T12:21:54;97763.53;;;25.95;60.37
20156;BME280;10238;49.556;10.956;2023-03-22T12:24:43;97753.53;;;26.10;57.08
20156;BME280;10238;49.556;10.956;2023-03-22T12:27:34;97761.38;;;25.97;57.23
20156;BME280;10238;49.556;10.956;2023-03-22T12:30:26;97760.13;;;26.19;56.11
20156;BME280;10238;49.556;10.956;2023-03-22T12:33:19;97759.88;;;26.26;56.68
20156;BME280;10238;49.556;10.956;2023-03-22T12:36:13;97755.81;;;26.48;55.57
20156;BME280;10238;49.556;10.956;2023-03-22T12:39:07;97755.25;;;26.41;55.14
20156;BME280;10238;49.556;10.956;2023-03-22T12:41:59;97749.09;;;25.94;48.70
20156;BME280;10238;49.556;10.956;2023-03-22T12:44:48;97746.06;;;24.97;48.88
20156;BME280;10238;49.556;10.956;2023-03-22T12:47:53;97751.78;;;23.13;51.79
20156;BME280;10238;49.556;10.956;2023-03-22T12:50:44;97752.66;;;25.06;61.04
20156;BME280;10238;49.556;10.956;2023-03-22T12:53:36;97741.41;;;25.76;56.50
20156;BME280;10238;49.556;10.956;2023-03-22T12:56:35;97734.84;;;25.72;55.29
20156;BME280;10238;49.556;10.956;2023-03-22T12:59:27;97735.75;;;25.93;55.77
20156;BME280;10238;49.556;10.956;2023-03-22T13:02:18;97725.66;;;25.88;56.52
20156;BME280;10238;49.556;10.956;2023-03-22T13:05:11;97727.00;;;25.29;57.64
20156;BME280;10238;49.556;10.956;2023-03-22T13:08:00;97725.66;;;25.32;50.79
20156;BME280;10238;49.556;10.956;2023-03-22T13:11:00;97716.78;;;25.51;55.72
20156;BME280;10238;49.556;10.956;2023-03-22T13:13:50;97717.41;;;25.63;58.09
20156;BME280;10238;49.556;10.956;2023-03-22T13:16:50;97723.72;;;24.59;52.54
20156;BME280;10238;49.556;10.956;2023-03-22T13:19:51;97734.94;;;23.88;53.40
20156;BME280;10238;49.556;10.956;2023-03-22T13:23:01;97723.91;;;22.80;52.47
20156;BME280;10238;49.556;10.956;2023-03-22T13:26:03;97723.34;;;23.33;61.41
20156;BME280;10238;49.556;10.956;2023-03-22T13:28:58;97718.06;;;23.43;60.09
20156;BME280;10238;49.556;10.956;2023-03-22T13:31:54;97708.72;;;24.51;58.09
20156;BME280;10238;49.556;10.956;2023-03-22T13:34:45;97706.09;;;24.35;56.84
20156;BME280;10238;49.556;10.956;2023-03-22T13:37:44;97703.03;;;24.00;59.78
20156;BME280;10238;49.556;10.956;2023-03-22T13:40:34;97703.53;;;24.50;55.40
20156;BME280;10238;49.556;10.956;2023-03-22T13:43:31;97700.31;;;22.97;48.86
20156;BME280;10238;49.556;10.956;2023-03-22T13:46:42;97693.16;;;23.67;59.93
20156;BME280;10238;49.556;10.956;2023-03-22T13:49:42;97690.44;;;24.42;57.16
20156;BME280;10238;49.556;10.956;2023-03-22T13:52:37;97685.72;;;24.06;49.89
20156;BME280;10238;49.556;10.956;2023-03-22T13:55:47;97693.00;;;24.27;57.14
20156;BME280;10238;49.556;10.956;2023-03-22T13:58:53;97687.56;;;24.00;59.42
20156;BME280;10238;49.556;10.956;2023-03-22T14:01:45;97678.72;;;24.41;57.07
20156;BME280;10238;49.556;10.956;2023-03-22T14:04:41;97679.94;;;24.92;54.54
20156;BME280;10238;49.556;10.956;2023-03-22T14:07:36;97672.75;;;24.71;53.71
20156;BME280;10238;49.556;10.956;2023-03-22T14:10:36;97676.97;;;24.93;54.33
20156;BME280;10238;49.556;10.956;2023-03-22T14:13:30;97671.78;;;24.24;54.00
20156;BME280;10238;49.556;10.956;2023-03-22T14:16:26;97674.44;;;24.19;53.17
20156;BME280;10238;49.556;10.956;2023-03-22T14:19:20;97673.22;;;23.57;54.62
20156;BME280;10238;49.556;10.956;2023-03-22T14:22:13;97664.88;;;24.43;54.32
20156;BME280;10238;49.556;10.956;2023-03-22T14:25:06;97665.09;;;24.05;54.24
20156;BME280;10238;49.556;10.956;2023-03-22T14:28:08;97653.94;;;24.33;57.37
20156;BME280;10238;49.556;10.956;2023-03-22T14:31:02;97650.13;;;24.34;54.14
20156;BME280;10238;49.556;10.956;2023-03-22T14:34:59;97649.97;;;23.66;55.97
20156;BME280;10238;49.556;10.956;2023-03-22T14:37:16;97649.91;;;23.61;54.18
20156;BME280;10238;49.556;10.956;2023-03-22T14:40:29;97657.97;;;22.41;48.27
20156;BME280;10238;49.556;10.956;2023-03-22T14:43:26;97650.81;;;23.45;55.38
20156;BME280;10238;49.556;10.956;2023-03-22T14:46:19;97653.50;;;23.93;55.15
20156;BME280;10238;49.556;10.956;2023-03-22T14:49:16;97639.56;;;23.58;55.25
20156;BME280;10238;49.556;10.956;2023-03-22T14:52:08;97641.44;;;23.79;55.15
20156;BME280;10238;49.556;10.956;2023-03-22T14:55:02;97640.91;;;23.55;47.97
20156;BME280;10238;49.556;10.956;2023-03-22T14:57:51;97648.84;;;22.80;50.26
20156;BME280;10238;49.556;10.956;2023-03-22T15:00:41;97646.34;;;23.34;54.57
20156;BME280;10238;49.556;10.956;2023-03-22T15:03:28;97640.28;;;23.48;57.99
20156;BME280;10238;49.556;10.956;2023-03-22T15:06:17;97642.97;;;23.26;54.63
20156;BME280;10238;49.556;10.956;2023-03-22T15:09:06;97639.09;;;23.22;57.65